sensor_id;sensor_type;location;lat;lon;timestamp;pressure;altitude;pressure_sealevel;temperature;humidity
30110;BME280;14965;50.660;13.226;2023-02-08T00:01:24;96985.78;;;-9.34;80.92
30110;BME280;14965;50.660;13.226;2023-02-08T00:03:51;96986.00;;;-9.45;80.37
30110;BME280;14965;50.660;13.226;2023-02-08T00:06:18;96978.22;;;-9.47;80.21
30110;BME280;14965;50.660;13.226;2023-02-08T00:08:44;96984.66;;;-9.48;80.66
30110;BME280;14965;50.660;13.226;2023-02-08T00:11:11;96994.78;;;-9.50;80.30
30110;BME280;14965;50.660;13.226;2023-02-08T00:13:38;96986.78;;;-9.50;80.40
30110;BME280;14965;50.660;13.226;2023-02-08T00:16:06;96980.34;;;-9.49;80.52
30110;BME280;14965;50.660;13.226;2023-02-08T00:18:31;96987.56;;;-9.49;80.30
30110;BME280;14965;50.660;13.226;2023-02-08T00:20:59;96991.03;;;-9.49;80.64
30110;BME280;14965;50.660;13.226;2023-02-08T00:23:25;96993.19;;;-9.51;80.31
30110;BME280;14965;50.660;13.226;2023-02-08T00:25:51;96992.09;;;-9.55;80.46
30110;BME280;14965;50.660;13.226;2023-02-08T00:28:18;96996.88;;;-9.57;80.41
30110;BME280;14965;50.660;13.226;2023-02-08T00:30:44;96991.00;;;-9.59;80.37
30110;BME280;14965;50.660;13.226;2023-02-08T00:33:11;96989.13;;;-9.59;80.42
30110;BME280;14965;50.660;13.226;2023-02-08T00:35:37;96980.03;;;-9.58;80.28
30110;BME280;14965;50.660;13.226;2023-02-08T00:38:04;96980.59;;;-9.56;80.18
30110;BME280;14965;50.660;13.226;2023-02-08T00:40:30;96978.16;;;-9.57;80.13
30110;BME280;14965;50.660;13.226;2023-02-08T00:42:56;96982.19;;;-9.55;80.08
30110;BME280;14965;50.660;13.226;2023-02-08T00:45:22;96977.13;;;-9.51;80.31
30110;BME280;14965;50.660;13.226;2023-02-08T00:47:47;96978.22;;;-9.47;80.47
30110;BME280;14965;50.660;13.226;2023-02-08T00:50:13;96983.31;;;-9.45;80.85
30110;BME280;14965;50.660;13.226;2023-02-08T00:52:39;96978.75;;;-9.45;80.42
30110;BME280;14965;50.660;13.226;2023-02-08T00:55:08;96979.34;;;-9.43;80.46
30110;BME280;14965;50.660;13.226;2023-02-08T00:57:34;96975.28;;;-9.45;80.00
30110;BME280;14965;50.660;13.226;2023-02-08T01:00:00;96976.56;;;-9.53;79.67
30110;BME280;14965;50.660;13.226;2023-02-08T01:02:26;96969.34;;;-9.58;79.58
30110;BME280;14965;50.660;13.226;2023-02-08T01:04:52;96976.56;;;-9.58;79.58
30110;BME280;14965;50.660;13.226;2023-02-08T01:07:18;96972.53;;;-9.61;79.67
30110;BME280;14965;50.660;13.226;2023-02-08T01:09:44;96975.22;;;-9.61;79.84
30110;BME280;14965;50.660;13.226;2023-02-08T01:12:11;96974.41;;;-9.61;79.44
30110;BME280;14965;50.660;13.226;2023-02-08T01:14:38;96974.16;;;-9.60;79.85
30110;BME280;14965;50.660;13.226;2023-02-08T01:17:04;96971.47;;;-9.60;79.89
30110;BME280;14965;50.660;13.226;2023-02-08T01:19:30;96966.41;;;-9.61;79.80
30110;BME280;14965;50.660;13.226;2023-02-08T01:21:56;96964.53;;;-9.61;80.02
30110;BME280;14965;50.660;13.226;2023-02-08T01:24:22;96962.38;;;-9.59;80.00
30110;BME280;14965;50.660;13.226;2023-02-08T01:26:48;96956.50;;;-9.61;80.44
30110;BME280;14965;50.660;13.226;2023-02-08T01:29:15;96962.88;;;-9.62;79.95
30110;BME280;14965;50.660;13.226;2023-02-08T01:31:43;96968.50;;;-9.63;80.09
30110;BME280;14965;50.660;13.226;2023-02-08T01:34:10;96957.81;;;-9.63;80.12
30110;BME280;14965;50.660;13.226;2023-02-08T01:36:38;96956.50;;;-9.61;80.94
30110;BME280;14965;50.660;13.226;2023-02-08T01:39:07;96948.72;;;-9.62;81.01
30110;BME280;14965;50.660;13.226;2023-02-08T01:41:36;96948.41;;;-9.66;80.75
30110;BME280;14965;50.660;13.226;2023-02-08T01:44:08;96939.06;;;-9.68;80.45
30110;BME280;14965;50.660;13.226;2023-02-08T01:46:54;96941.47;;;-9.67;81.06
30110;BME280;14965;50.660;13.226;2023-02-08T01:49:23;96932.94;;;-9.64;81.38
30110;BME280;14965;50.660;13.226;2023-02-08T01:51:56;96937.50;;;-9.59;81.46
30110;BME280;14965;50.660;13.226;2023-02-08T01:54:27;96938.59;;;-9.55;81.11
30110;BME280;14965;50.660;13.226;2023-02-08T01:56:55;96925.75;;;-9.53;81.03
30110;BME280;14965;50.660;13.226;2023-02-08T01:59:25;96936.75;;;-9.49;80.51
30110;BME280;14965;50.660;13.226;2023-02-08T02:01:56;96936.25;;;-9.46;80.99
30110;BME280;14965;50.660;13.226;2023-02-08T02:04:25;96930.88;;;-9.46;81.15
30110;BME280;14965;50.660;13.226;2023-02-08T02:06:55;96927.13;;;-9.45;81.18
30110;BME280;14965;50.660;13.226;2023-02-08T02:09:28;96923.66;;;-9.46;80.84
30110;BME280;14965;50.660;13.226;2023-02-08T02:11:57;96925.53;;;-9.46;81.25
30110;BME280;14965;50.660;13.226;2023-02-08T02:14:23;96920.47;;;-9.43;81.09
30110;BME280;14965;50.660;13.226;2023-02-08T02:16:50;96932.78;;;-9.37;81.68
30110;BME280;14965;50.660;13.226;2023-02-08T02:19:36;96926.94;;;-9.29;82.30
30110;BME280;14965;50.660;13.226;2023-02-08T02:22:45;96922.16;;;-9.26;82.08
30110;BME280;14965;50.660;13.226;2023-02-08T02:25:48;96929.34;;;-9.32;82.14
30110;BME280;14965;50.660;13.226;2023-02-08T02:28:44;96926.16;;;-9.29;82.03
30110;BME280;14965;50.660;13.226;2023-02-08T02:31:57;96931.00;;;-9.26;82.59
30110;BME280;14965;50.660;13.226;2023-02-08T02:34:34;96931.78;;;-9.25;82.25
30110;BME280;14965;50.660;13.226;2023-02-08T02:37:11;96932.59;;;-9.25;83.00
30110;BME280;14965;50.660;13.226;2023-02-08T02:39:50;96929.13;;;-9.20;83.29
30110;BME280;14965;50.660;13.226;2023-02-08T02:42:25;96930.50;;;-9.13;83.84
30110;BME280;14965;50.660;13.226;2023-02-08T02:45:05;96926.50;;;-9.10;83.94
30110;BME280;14965;50.660;13.226;2023-02-08T02:47:43;96936.94;;;-9.14;84.19
30110;BME280;14965;50.660;13.226;2023-02-08T02:50:22;96923.53;;;-9.14;84.49
30110;BME280;14965;50.660;13.226;2023-02-08T02:52:57;96921.13;;;-9.15;84.24
30110;BME280;14965;50.660;13.226;2023-02-08T02:55:28;96918.72;;;-9.17;84.35
30110;BME280;14965;50.660;13.226;2023-02-08T02:58:00;96915.22;;;-9.17;84.49
30110;BME280;14965;50.660;13.226;2023-02-08T03:00:29;96914.97;;;-9.16;84.09
30110;BME280;14965;50.660;13.226;2023-02-08T03:02:57;96917.91;;;-9.12;84.30
30110;BME280;14965;50.660;13.226;2023-02-08T03:05:24;96916.59;;;-9.15;84.07
30110;BME280;14965;50.660;13.226;2023-02-08T03:08:11;96918.72;;;-9.12;84.04
30110;BME280;14965;50.660;13.226;2023-02-08T03:11:06;96923.03;;;-9.11;83.93
30110;BME280;14965;50.660;13.226;2023-02-08T03:14:02;96914.44;;;-9.08;83.96
30110;BME280;14965;50.660;13.226;2023-02-08T03:16:42;96917.69;;;-9.00;84.10
30110;BME280;14965;50.660;13.226;2023-02-08T03:19:21;96913.72;;;-8.88;84.75
30110;BME280;14965;50.660;13.226;2023-02-08T03:21:57;96920.47;;;-8.65;86.34
30110;BME280;14965;50.660;13.226;2023-02-08T03:24:28;96912.47;;;-8.39;87.04
30110;BME280;14965;50.660;13.226;2023-02-08T03:27:05;96915.38;;;-8.20;86.97
30110;BME280;14965;50.660;13.226;2023-02-08T03:29:44;96910.00;;;-8.10;87.50
30110;BME280;14965;50.660;13.226;2023-02-08T03:32:18;96909.72;;;-7.98;87.19
30110;BME280;14965;50.660;13.226;2023-02-08T03:34:54;96914.81;;;-7.87;87.96
30110;BME280;14965;50.660;13.226;2023-02-08T03:37:25;96914.81;;;-7.77;88.21
30110;BME280;14965;50.660;13.226;2023-02-08T03:40:01;96921.72;;;-7.65;88.20
30110;BME280;14965;50.660;13.226;2023-02-08T03:42:32;96922.25;;;-7.53;87.96
30110;BME280;14965;50.660;13.226;2023-02-08T03:45:04;96915.25;;;-7.49;87.95
30110;BME280;14965;50.660;13.226;2023-02-08T03:47:37;96916.06;;;-7.48;87.64
30110;BME280;14965;50.660;13.226;2023-02-08T03:50:09;96916.63;;;-7.52;87.56
30110;BME280;14965;50.660;13.226;2023-02-08T03:52:37;96922.25;;;-7.53;87.01
30110;BME280;14965;50.660;13.226;2023-02-08T03:55:09;96911.81;;;-7.60;86.35
30110;BME280;14965;50.660;13.226;2023-02-08T03:57:45;96907.81;;;-7.72;85.59
30110;BME280;14965;50.660;13.226;2023-02-08T04:00:16;96919.63;;;-7.84;85.29
30110;BME280;14965;50.660;13.226;2023-02-08T04:02:56;96910.53;;;-7.93;84.53
30110;BME280;14965;50.660;13.226;2023-02-08T04:05:26;96915.34;;;-8.00;84.57
30110;BME280;14965;50.660;13.226;2023-02-08T04:07:52;96915.09;;;-8.09;84.30
30110;BME280;14965;50.660;13.226;2023-02-08T04:10:19;96916.97;;;-8.24;84.57
30110;BME280;14965;50.660;13.226;2023-02-08T04:12:47;96916.72;;;-8.23;86.14
30110;BME280;14965;50.660;13.226;2023-02-08T04:15:13;96907.31;;;-8.20;86.38
30110;BME280;14965;50.660;13.226;2023-02-08T04:17:39;96906.00;;;-8.23;86.86
30110;BME280;14965;50.660;13.226;2023-02-08T04:20:06;96906.25;;;-8.30;85.97
30110;BME280;14965;50.660;13.226;2023-02-08T04:22:33;96915.94;;;-8.39;85.95
30110;BME280;14965;50.660;13.226;2023-02-08T04:25:00;96910.56;;;-8.49;85.84
30110;BME280;14965;50.660;13.226;2023-02-08T04:27:25;96916.72;;;-8.54;87.70
30110;BME280;14965;50.660;13.226;2023-02-08T04:29:51;96921.81;;;-8.47;87.96
30110;BME280;14965;50.660;13.226;2023-02-08T04:32:17;96926.66;;;-8.44;88.18
30110;BME280;14965;50.660;13.226;2023-02-08T04:34:43;96920.75;;;-8.46;88.14
30110;BME280;14965;50.660;13.226;2023-02-08T04:37:09;96918.59;;;-8.49;87.85
30110;BME280;14965;50.660;13.226;2023-02-08T04:39:36;96922.63;;;-8.51;88.00
30110;BME280;14965;50.660;13.226;2023-02-08T04:42:02;96912.97;;;-8.52;88.07
30110;BME280;14965;50.660;13.226;2023-02-08T04:44:28;96915.63;;;-8.58;87.97
30110;BME280;14965;50.660;13.226;2023-02-08T04:46:54;96916.97;;;-8.65;87.97
30110;BME280;14965;50.660;13.226;2023-02-08T04:49:20;96928.22;;;-8.58;87.94
30110;BME280;14965;50.660;13.226;2023-02-08T04:51:46;96923.16;;;-8.60;87.68
30110;BME280;14965;50.660;13.226;2023-02-08T04:54:11;96930.34;;;-8.65;88.09
30110;BME280;14965;50.660;13.226;2023-02-08T04:56:39;96927.44;;;-8.64;87.96
30110;BME280;14965;50.660;13.226;2023-02-08T04:59:04;96933.59;;;-8.58;88.13
30110;BME280;14965;50.660;13.226;2023-02-08T05:01:30;96942.44;;;-8.52;88.76
30110;BME280;14965;50.660;13.226;2023-02-08T05:03:56;96940.31;;;-8.56;88.09
30110;BME280;14965;50.660;13.226;2023-02-08T05:06:22;96944.56;;;-8.60;87.35
30110;BME280;14965;50.660;13.226;2023-02-08T05:08:48;96942.69;;;-8.64;86.86
30110;BME280;14965;50.660;13.226;2023-02-08T05:11:19;96938.66;;;-8.62;87.33
30110;BME280;14965;50.660;13.226;2023-02-08T05:13:46;96929.34;;;-8.44;88.01
30110;BME280;14965;50.660;13.226;2023-02-08T05:16:12;96934.13;;;-8.31;89.09
30110;BME280;14965;50.660;13.226;2023-02-08T05:18:38;96935.47;;;-8.18;89.29
30110;BME280;14965;50.660;13.226;2023-02-08T05:21:04;96931.44;;;-8.05;89.90
30110;BME280;14965;50.660;13.226;2023-02-08T05:23:30;96924.47;;;-7.96;89.51
30110;BME280;14965;50.660;13.226;2023-02-08T05:25:56;96925.81;;;-7.88;90.06
30110;BME280;14965;50.660;13.226;2023-02-08T05:28:22;96924.72;;;-7.82;89.94
30110;BME280;14965;50.660;13.226;2023-02-08T05:30:49;96917.72;;;-7.78;89.57
30110;BME280;14965;50.660;13.226;2023-02-08T05:33:16;96933.28;;;-7.75;89.80
30110;BME280;14965;50.660;13.226;2023-02-08T05:35:43;96926.88;;;-7.84;89.30
30110;BME280;14965;50.660;13.226;2023-02-08T05:38:09;96935.47;;;-7.97;88.33
30110;BME280;14965;50.660;13.226;2023-02-08T05:40:35;96935.22;;;-8.06;88.48
30110;BME280;14965;50.660;13.226;2023-02-08T05:43:02;96931.97;;;-8.08;88.53
30110;BME280;14965;50.660;13.226;2023-02-08T05:45:28;96934.94;;;-8.10;88.31
30110;BME280;14965;50.660;13.226;2023-02-08T05:47:55;96928.25;;;-8.02;88.83
30110;BME280;14965;50.660;13.226;2023-02-08T05:50:25;96936.53;;;-7.98;88.63
30110;BME280;14965;50.660;13.226;2023-02-08T05:52:51;96933.31;;;-7.95;89.06
30110;BME280;14965;50.660;13.226;2023-02-08T05:55:17;96933.06;;;-7.89;89.46
30110;BME280;14965;50.660;13.226;2023-02-08T05:57:43;96939.50;;;-7.90;89.11
30110;BME280;14965;50.660;13.226;2023-02-08T06:00:11;96941.63;;;-7.92;89.79
30110;BME280;14965;50.660;13.226;2023-02-08T06:02:37;96944.31;;;-7.92;89.77
30110;BME280;14965;50.660;13.226;2023-02-08T06:05:05;96942.19;;;-7.90;89.91
30110;BME280;14965;50.660;13.226;2023-02-08T06:07:30;96935.19;;;-7.86;90.12
30110;BME280;14965;50.660;13.226;2023-02-08T06:09:56;96934.66;;;-7.83;90.15
30110;BME280;14965;50.660;13.226;2023-02-08T06:12:22;96940.28;;;-7.79;90.59
30110;BME280;14965;50.660;13.226;2023-02-08T06:14:48;96944.56;;;-7.78;90.01
30110;BME280;14965;50.660;13.226;2023-02-08T06:17:14;96947.25;;;-7.78;90.56
30110;BME280;14965;50.660;13.226;2023-02-08T06:19:39;96945.66;;;-7.84;89.66
30110;BME280;14965;50.660;13.226;2023-02-08T06:22:07;96943.50;;;-7.87;90.32
30110;BME280;14965;50.660;13.226;2023-02-08T06:24:32;96943.78;;;-7.94;88.98
30110;BME280;14965;50.660;13.226;2023-02-08T06:26:58;96950.22;;;-8.00;89.55
30110;BME280;14965;50.660;13.226;2023-02-08T06:29:27;96948.06;;;-8.03;89.78
30110;BME280;14965;50.660;13.226;2023-02-08T06:31:53;96943.25;;;-7.96;90.32
30110;BME280;14965;50.660;13.226;2023-02-08T06:34:19;96957.72;;;-7.87;90.55
30110;BME280;14965;50.660;13.226;2023-02-08T06:36:45;96950.72;;;-7.83;91.46
30110;BME280;14965;50.660;13.226;2023-02-08T06:39:12;96953.94;;;-7.70;91.30
30110;BME280;14965;50.660;13.226;2023-02-08T06:41:38;96946.94;;;-7.61;91.55
30110;BME280;14965;50.660;13.226;2023-02-08T06:44:04;96948.81;;;-7.52;91.57
30110;BME280;14965;50.660;13.226;2023-02-08T06:46:29;96960.88;;;-7.44;91.33
30110;BME280;14965;50.660;13.226;2023-02-08T06:48:55;96964.63;;;-7.35;91.52
30110;BME280;14965;50.660;13.226;2023-02-08T06:51:21;96962.44;;;-7.33;90.63
30110;BME280;14965;50.660;13.226;2023-02-08T06:53:47;96971.56;;;-7.29;90.49
30110;BME280;14965;50.660;13.226;2023-02-08T06:56:14;96964.56;;;-7.24;89.96
30110;BME280;14965;50.660;13.226;2023-02-08T06:58:40;96960.81;;;-7.18;90.05
30110;BME280;14965;50.660;13.226;2023-02-08T07:01:10;96960.25;;;-7.10;89.95
30110;BME280;14965;50.660;13.226;2023-02-08T07:03:36;96976.06;;;-7.04;89.38
30110;BME280;14965;50.660;13.226;2023-02-08T07:06:02;96969.59;;;-6.97;89.13
30110;BME280;14965;50.660;13.226;2023-02-08T07:08:28;96972.78;;;-6.90;88.59
30110;BME280;14965;50.660;13.226;2023-02-08T07:10:54;96971.69;;;-6.84;88.30
30110;BME280;14965;50.660;13.226;2023-02-08T07:13:21;96976.53;;;-6.81;88.26
30110;BME280;14965;50.660;13.226;2023-02-08T07:15:47;96978.63;;;-6.78;88.12
30110;BME280;14965;50.660;13.226;2023-02-08T07:18:13;96972.19;;;-6.72;87.82
30110;BME280;14965;50.660;13.226;2023-02-08T07:20:39;96981.81;;;-6.66;87.40
30110;BME280;14965;50.660;13.226;2023-02-08T07:23:04;96985.28;;;-6.65;86.71
30110;BME280;14965;50.660;13.226;2023-02-08T07:25:30;96981.00;;;-6.66;86.97
30110;BME280;14965;50.660;13.226;2023-02-08T07:27:56;96981.03;;;-6.71;86.46
30110;BME280;14965;50.660;13.226;2023-02-08T07:30:23;96972.78;;;-6.85;85.78
30110;BME280;14965;50.660;13.226;2023-02-08T07:32:49;96973.03;;;-6.87;86.33
30110;BME280;14965;50.660;13.226;2023-02-08T07:35:15;96963.88;;;-6.86;86.11
30110;BME280;14965;50.660;13.226;2023-02-08T07:37:41;96967.63;;;-6.77;86.40
30110;BME280;14965;50.660;13.226;2023-02-08T07:40:08;96967.31;;;-6.70;86.13
30110;BME280;14965;50.660;13.226;2023-02-08T07:42:34;96959.50;;;-6.66;85.93
30110;BME280;14965;50.660;13.226;2023-02-08T07:45:00;96961.66;;;-6.63;85.65
30110;BME280;14965;50.660;13.226;2023-02-08T07:47:27;96958.41;;;-6.60;85.59
30110;BME280;14965;50.660;13.226;2023-02-08T07:49:52;96961.09;;;-6.60;85.61
30110;BME280;14965;50.660;13.226;2023-02-08T07:52:18;96965.41;;;-6.59;85.12
30110;BME280;14965;50.660;13.226;2023-02-08T07:54:44;96957.28;;;-6.54;85.32
30110;BME280;14965;50.660;13.226;2023-02-08T07:57:10;96952.44;;;-6.52;84.93
30110;BME280;14965;50.660;13.226;2023-02-08T07:59:36;96944.09;;;-6.50;85.10
30110;BME280;14965;50.660;13.226;2023-02-08T08:02:02;96951.91;;;-6.54;85.04
30110;BME280;14965;50.660;13.226;2023-02-08T08:04:29;96946.25;;;-6.53;84.74
30110;BME280;14965;50.660;13.226;2023-02-08T08:06:55;96950.78;;;-6.43;85.04
30110;BME280;14965;50.660;13.226;2023-02-08T08:09:21;96946.47;;;-6.39;84.01
30110;BME280;14965;50.660;13.226;2023-02-08T08:11:46;96942.88;;;-6.29;84.01
30110;BME280;14965;50.660;13.226;2023-02-08T08:14:12;96942.25;;;-6.16;83.80
30110;BME280;14965;50.660;13.226;2023-02-08T08:16:38;96954.00;;;-6.07;83.72
30110;BME280;14965;50.660;13.226;2023-02-08T08:19:04;96949.06;;;-5.94;83.21
30110;BME280;14965;50.660;13.226;2023-02-08T08:21:31;96950.88;;;-5.85;82.48
30110;BME280;14965;50.660;13.226;2023-02-08T08:23:57;96955.41;;;-5.80;81.41
30110;BME280;14965;50.660;13.226;2023-02-08T08:26:23;96951.56;;;-5.74;81.40
30110;BME280;14965;50.660;13.226;2023-02-08T08:28:49;96960.38;;;-5.63;81.35
30110;BME280;14965;50.660;13.226;2023-02-08T08:31:17;96959.16;;;-5.52;81.24
30110;BME280;14965;50.660;13.226;2023-02-08T08:33:44;96960.38;;;-5.39;81.13
30110;BME280;14965;50.660;13.226;2023-02-08T08:36:10;96958.41;;;-5.29;80.84
30110;BME280;14965;50.660;13.226;2023-02-08T08:38:37;96958.56;;;-5.20;80.64
30110;BME280;14965;50.660;13.226;2023-02-08T08:41:07;96964.13;;;-5.11;80.42
30110;BME280;14965;50.660;13.226;2023-02-08T08:43:33;96968.91;;;-5.03;79.74
30110;BME280;14965;50.660;13.226;2023-02-08T08:45:58;96972.56;;;-4.94;79.17
30110;BME280;14965;50.660;13.226;2023-02-08T08:48:24;96977.31;;;-4.86;77.92
30110;BME280;14965;50.660;13.226;2023-02-08T08:50:52;96970.41;;;-4.73;77.35
30110;BME280;14965;50.660;13.226;2023-02-08T08:53:18;96983.31;;;-4.70;76.97
30110;BME280;14965;50.660;13.226;2023-02-08T08:55:46;96979.69;;;-4.60;77.02
30110;BME280;14965;50.660;13.226;2023-02-08T08:58:12;96976.13;;;-4.56;77.70
30110;BME280;14965;50.660;13.226;2023-02-08T09:00:38;96983.38;;;-4.51;76.82
30110;BME280;14965;50.660;13.226;2023-02-08T09:03:04;96979.28;;;-4.48;76.21
30110;BME280;14965;50.660;13.226;2023-02-08T09:05:30;96981.81;;;-4.57;76.37
30110;BME280;14965;50.660;13.226;2023-02-08T09:07:56;96983.94;;;-4.54;76.63
30110;BME280;14965;50.660;13.226;2023-02-08T09:10:22;96989.44;;;-4.64;76.81
30110;BME280;14965;50.660;13.226;2023-02-08T09:12:49;96992.97;;;-4.64;77.13
30110;BME280;14965;50.660;13.226;2023-02-08T09:15:15;96996.47;;;-4.63;77.29
30110;BME280;14965;50.660;13.226;2023-02-08T09:17:41;96999.50;;;-4.70;77.14
30110;BME280;14965;50.660;13.226;2023-02-08T09:20:08;96998.94;;;-4.67;77.76
30110;BME280;14965;50.660;13.226;2023-02-08T09:22:34;97009.00;;;-4.54;77.86
30110;BME280;14965;50.660;13.226;2023-02-08T09:25:00;96994.00;;;-4.41;77.22
30110;BME280;14965;50.660;13.226;2023-02-08T09:27:26;97000.09;;;-4.30;76.82
30110;BME280;14965;50.660;13.226;2023-02-08T09:29:54;97011.16;;;-4.32;75.71
30110;BME280;14965;50.660;13.226;2023-02-08T09:32:19;97017.78;;;-4.43;75.20
30110;BME280;14965;50.660;13.226;2023-02-08T09:34:45;97024.47;;;-4.40;75.61
30110;BME280;14965;50.660;13.226;2023-02-08T09:37:11;97019.88;;;-4.40;75.36
30110;BME280;14965;50.660;13.226;2023-02-08T09:39:52;97022.50;;;-4.35;75.31
30110;BME280;14965;50.660;13.226;2023-02-08T09:42:29;97023.19;;;-4.43;75.96
30110;BME280;14965;50.660;13.226;2023-02-08T09:45:25;97026.56;;;-4.56;77.01
30110;BME280;14965;50.660;13.226;2023-02-08T09:47:59;97038.03;;;-4.69;77.07
30110;BME280;14965;50.660;13.226;2023-02-08T09:50:33;97038.34;;;-4.71;77.82
30110;BME280;14965;50.660;13.226;2023-02-08T09:53:09;97043.66;;;-4.66;77.79
30110;BME280;14965;50.660;13.226;2023-02-08T09:55:39;97036.16;;;-4.69;77.66
30110;BME280;14965;50.660;13.226;2023-02-08T09:58:19;97038.81;;;-4.64;77.39
30110;BME280;14965;50.660;13.226;2023-02-08T10:00:50;97038.16;;;-4.56;77.68
30110;BME280;14965;50.660;13.226;2023-02-08T10:03:28;97035.41;;;-4.51;77.11
30110;BME280;14965;50.660;13.226;2023-02-08T10:05:57;97045.03;;;-4.44;76.20
30110;BME280;14965;50.660;13.226;2023-02-08T10:08:23;97051.44;;;-4.40;76.44
30110;BME280;14965;50.660;13.226;2023-02-08T10:10:55;97057.06;;;-4.37;76.36
30110;BME280;14965;50.660;13.226;2023-02-08T10:14:03;97060.22;;;-4.30;76.23
30110;BME280;14965;50.660;13.226;2023-02-08T10:16:54;97058.50;;;-4.20;76.08
30110;BME280;14965;50.660;13.226;2023-02-08T10:19:44;97054.88;;;-4.35;75.13
30110;BME280;14965;50.660;13.226;2023-02-08T10:22:30;97050.81;;;-4.32;75.43
30110;BME280;14965;50.660;13.226;2023-02-08T10:25:42;97044.03;;;-4.30;75.77
30110;BME280;14965;50.660;13.226;2023-02-08T10:28:31;97039.91;;;-4.03;75.74
30110;BME280;14965;50.660;13.226;2023-02-08T10:31:11;97046.13;;;-3.84;75.01
30110;BME280;14965;50.660;13.226;2023-02-08T10:33:51;97046.84;;;-3.59;74.77
30110;BME280;14965;50.660;13.226;2023-02-08T10:36:24;97036.00;;;-3.27;73.72
30110;BME280;14965;50.660;13.226;2023-02-08T10:38:54;97033.84;;;-3.11;72.34
30110;BME280;14965;50.660;13.226;2023-02-08T10:41:31;97035.41;;;-2.91;71.36
30110;BME280;14965;50.660;13.226;2023-02-08T10:44:08;97042.03;;;-2.83;70.89
30110;BME280;14965;50.660;13.226;2023-02-08T10:46:46;97037.72;;;-2.70;70.54
30110;BME280;14965;50.660;13.226;2023-02-08T10:49:26;97028.50;;;-2.56;69.72
30110;BME280;14965;50.660;13.226;2023-02-08T10:51:55;97024.59;;;-2.77;69.35
30110;BME280;14965;50.660;13.226;2023-02-08T10:54:21;97021.59;;;-2.76;70.01
30110;BME280;14965;50.660;13.226;2023-02-08T10:56:51;97026.50;;;-2.78;69.73
30110;BME280;14965;50.660;13.226;2023-02-08T10:59:23;97019.38;;;-2.73;70.38
30110;BME280;14965;50.660;13.226;2023-02-08T11:01:52;97008.25;;;-2.72;69.80
30110;BME280;14965;50.660;13.226;2023-02-08T11:04:20;97004.69;;;-2.67;70.31
30110;BME280;14965;50.660;13.226;2023-02-08T11:06:48;97007.66;;;-2.55;70.27
30110;BME280;14965;50.660;13.226;2023-02-08T11:09:26;96992.34;;;-2.46;69.57
30110;BME280;14965;50.660;13.226;2023-02-08T11:11:54;96985.09;;;-2.37;69.05
30110;BME280;14965;50.660;13.226;2023-02-08T11:14:25;96987.38;;;-2.30;68.84
30110;BME280;14965;50.660;13.226;2023-02-08T11:16:55;96986.28;;;-2.29;68.47
30110;BME280;14965;50.660;13.226;2023-02-08T11:19:32;96974.13;;;-2.18;68.88
30110;BME280;14965;50.660;13.226;2023-02-08T11:22:00;96963.00;;;-2.16;67.79
30110;BME280;14965;50.660;13.226;2023-02-08T11:24:32;96970.50;;;-2.13;68.39
30110;BME280;14965;50.660;13.226;2023-02-08T11:26:58;96963.38;;;-2.09;67.98
30110;BME280;14965;50.660;13.226;2023-02-08T11:29:28;96964.81;;;-2.12;68.32
30110;BME280;14965;50.660;13.226;2023-02-08T11:32:01;96970.00;;;-2.15;67.56
30110;BME280;14965;50.660;13.226;2023-02-08T11:34:31;96956.81;;;-2.17;67.83
30110;BME280;14965;50.660;13.226;2023-02-08T11:37:01;96947.38;;;-2.19;68.75
30110;BME280;14965;50.660;13.226;2023-02-08T11:39:38;96939.31;;;-2.11;68.24
30110;BME280;14965;50.660;13.226;2023-02-08T11:42:06;96944.31;;;-2.04;68.31
30110;BME280;14965;50.660;13.226;2023-02-08T11:44:42;96937.38;;;-1.96;67.70
30110;BME280;14965;50.660;13.226;2023-02-08T11:47:15;96935.56;;;-2.01;67.78
30110;BME280;14965;50.660;13.226;2023-02-08T11:49:51;96941.88;;;-1.92;68.50
30110;BME280;14965;50.660;13.226;2023-02-08T11:52:21;96940.09;;;-1.96;67.27
30110;BME280;14965;50.660;13.226;2023-02-08T11:54:47;96938.19;;;-1.96;67.59
30110;BME280;14965;50.660;13.226;2023-02-08T11:57:16;96939.59;;;-1.98;67.14
30110;BME280;14965;50.660;13.226;2023-02-08T11:59:43;96952.25;;;-2.08;67.35
30110;BME280;14965;50.660;13.226;2023-02-08T12:02:28;96953.25;;;-2.04;67.93
30110;BME280;14965;50.660;13.226;2023-02-08T12:04:57;96943.09;;;-1.98;67.67
30110;BME280;14965;50.660;13.226;2023-02-08T12:07:35;96937.53;;;-1.93;67.56
30110;BME280;14965;50.660;13.226;2023-02-08T12:10:51;96932.44;;;-1.94;67.48
30110;BME280;14965;50.660;13.226;2023-02-08T12:13:36;96919.22;;;-1.96;67.72
30110;BME280;14965;50.660;13.226;2023-02-08T12:16:21;96918.91;;;-1.94;67.47
30110;BME280;14965;50.660;13.226;2023-02-08T12:19:24;96930.53;;;-1.94;67.00
30110;BME280;14965;50.660;13.226;2023-02-08T12:21:59;96935.41;;;-2.05;66.81
30110;BME280;14965;50.660;13.226;2023-02-08T12:24:43;96940.84;;;-2.18;67.53
30110;BME280;14965;50.660;13.226;2023-02-08T12:27:29;96923.25;;;-2.30;67.46
30110;BME280;14965;50.660;13.226;2023-02-08T12:30:08;96928.66;;;-2.30;68.04
30110;BME280;14965;50.660;13.226;2023-02-08T12:32:56;96930.59;;;-2.44;67.37
30110;BME280;14965;50.660;13.226;2023-02-08T12:35:55;96944.56;;;-2.51;67.60
30110;BME280;14965;50.660;13.226;2023-02-08T12:38:36;96931.22;;;-2.61;68.01
30110;BME280;14965;50.660;13.226;2023-02-08T12:41:12;96939.94;;;-2.50;68.50
30110;BME280;14965;50.660;13.226;2023-02-08T12:43:50;96937.44;;;-2.46;67.93
30110;BME280;14965;50.660;13.226;2023-02-08T12:46:59;96930.72;;;-2.49;67.83
30110;BME280;14965;50.660;13.226;2023-02-08T12:49:49;96940.97;;;-2.73;68.07
30110;BME280;14965;50.660;13.226;2023-02-08T12:52:30;96936.25;;;-2.82;69.11
30110;BME280;14965;50.660;13.226;2023-02-08T12:55:12;96938.16;;;-2.82;68.90
30110;BME280;14965;50.660;13.226;2023-02-08T12:57:43;96940.47;;;-2.76;69.56
30110;BME280;14965;50.660;13.226;2023-02-08T13:00:19;96938.16;;;-2.68;70.03
30110;BME280;14965;50.660;13.226;2023-02-08T13:02:55;96931.53;;;-2.62;70.09
30110;BME280;14965;50.660;13.226;2023-02-08T13:05:29;96929.94;;;-2.63;69.50
30110;BME280;14965;50.660;13.226;2023-02-08T13:08:06;96926.25;;;-2.67;69.04
30110;BME280;14965;50.660;13.226;2023-02-08T13:10:38;96934.63;;;-2.69;69.70